CYFO

Flin Flon Airport

Flin Flon, Manitoba, Canada
METAR CYFO 192200Z 28005KT 270V330 15SM BKN065 BKN200 19/06 A3010 RMK SC5CI2 SLP202 DENSITY ALT 1500FT
Observed Flight Rules
Aug-19 @ 22:00 UTC (an hour ago) Visual Flight Rules
Wind Visibility Clouds
280° at 5 knots 15 miles
  • Broken at 6,500' AGL
  • Broken at 20,000' AGL
Temperatures Readings
Current 19°C / 66°F
Dewpoint 6°C / 43°F
Humidity 43%
Altimeter 30.1" Hg
Pressure 1020.2 hPa
Elevation 304
METAR CYFO 192200Z 28005KT 270V330 15SM BKN065 BKN200 19/06 A3010 RMK SC5CI2 SLP202 DENSITY ALT 1500FT
Observed Flight Rules
Aug-19 @ 22:00 UTC
(an hour ago)
VFR
Wind Visibility
280° at 5 knots 15 miles
Clouds
  • Broken at 6,500' AGL
  • Broken at 20,000' AGL
Temperature Dewpoint
19°C / 66°F 6°C / 43°F
Humidity Altimeter Pressure
43% 30.1" Hg 1020.2 hPa